Time;durP1;ratioP1;P1;durP2;ratioP2;P2;SDS_P1;SDS_P2;PMS_P1;PMS_P2;Temp;Humidity;BMP_temperature;BMP_pressure;BME280_temperature;BME280_humidity;BME280_pressure;Samples;Min_cycle;Max_cycle;Signal;HPM_P1;HPM_P2
2022/08/05 00:02:08;;;;;;;4.60;1.70;;;26.00;90.80;;;;;;5047667;28;20124;-71
2022/08/05 00:04:34;;;;;;;3.50;2.25;;;26.00;90.60;;;;;;5038188;28;20029;-71
2022/08/05 00:06:59;;;;;;;2.50;2.08;;;26.00;90.50;;;;;;5038087;28;20113;-71
2022/08/05 00:09:25;;;;;;;5.47;1.83;;;26.00;90.50;;;;;;5045818;28;20033;-71
2022/08/05 00:11:51;;;;;;;2.17;1.75;;;26.00;90.50;;;;;;5043533;28;20052;-70
2022/08/05 00:14:17;;;;;;;3.08;1.90;;;26.00;90.10;;;;;;5044611;28;20553;-71
2022/08/05 00:16:46;;;;;;;3.67;1.73;;;26.00;90.00;;;;;;5048730;28;20025;-71
2022/08/05 00:19:11;;;;;;;2.08;1.77;;;26.00;89.80;;;;;;5035287;28;20037;-71
2022/08/05 00:21:37;;;;;;;5.13;2.00;;;26.00;89.80;;;;;;5048842;28;20070;-68
2022/08/05 00:24:04;;;;;;;1.75;1.65;;;26.00;89.90;;;;;;5043327;28;20630;-68
2022/08/05 00:26:29;;;;;;;2.75;1.75;;;26.00;90.00;;;;;;5044504;28;20120;-71
2022/08/05 00:28:55;;;;;;;2.05;1.85;;;25.90;90.00;;;;;;5041100;28;20492;-71
2022/08/05 00:31:21;;;;;;;3.83;2.10;;;25.90;90.10;;;;;;5034672;28;20025;-71
2022/08/05 00:33:46;;;;;;;4.45;2.00;;;25.90;90.20;;;;;;5042372;28;20083;-71
2022/08/05 00:36:13;;;;;;;3.33;2.17;;;25.80;90.30;;;;;;5033068;28;20503;-71
2022/08/05 00:38:39;;;;;;;3.92;2.00;;;25.90;90.30;;;;;;5036160;28;20114;-71
2022/08/05 00:41:06;;;;;;;3.55;2.17;;;25.80;90.40;;;;;;5032843;28;20104;-71
2022/08/05 00:43:35;;;;;;;2.08;1.83;;;25.80;90.50;;;;;;5042480;28;20045;-71
2022/08/05 00:46:01;;;;;;;2.35;1.95;;;25.80;90.70;;;;;;5050125;28;20025;-71
2022/08/05 00:48:27;;;;;;;2.83;2.13;;;25.80;90.70;;;;;;5041311;28;20031;-71
2022/08/05 00:50:53;;;;;;;3.53;1.88;;;25.80;90.80;;;;;;5050574;28;20025;-71
2022/08/05 00:53:21;;;;;;;4.90;1.95;;;25.80;90.70;;;;;;5040629;28;20388;-70
2022/08/05 00:55:47;;;;;;;1.63;1.52;;;25.80;90.80;;;;;;5047139;28;20258;-70
2022/08/05 00:58:15;;;;;;;3.88;2.20;;;25.80;90.80;;;;;;5036653;28;20383;-70
2022/08/05 01:00:41;;;;;;;2.20;2.00;;;25.90;90.90;;;;;;5030091;28;20036;-71
2022/08/05 01:03:07;;;;;;;5.25;2.10;;;25.80;90.90;;;;;;5046028;28;20017;-71
2022/08/05 01:05:33;;;;;;;2.58;2.38;;;25.80;91.10;;;;;;5031502;28;20484;-71
2022/08/05 01:07:59;;;;;;;3.53;2.28;;;25.80;91.30;;;;;;5038548;28;20029;-71
2022/08/05 01:10:34;;;;;;;2.55;2.35;;;25.70;91.30;;;;;;5051376;28;20438;-71
2022/08/05 01:13:11;;;;;;;3.15;2.15;;;25.70;91.30;;;;;;5039125;28;20037;-71
2022/08/05 01:15:45;;;;;;;3.22;2.47;;;25.70;91.40;;;;;;5051085;28;20063;-70
2022/08/05 01:18:23;;;;;;;3.40;1.80;;;25.70;91.60;;;;;;5042458;28;20583;-71
2022/08/05 01:21:13;;;;;;;2.90;2.20;;;25.60;91.70;;;;;;5031348;28;20030;-71
2022/08/05 01:24:14;;;;;;;2.30;2.10;;;25.50;91.80;;;;;;5035827;28;20112;-70
2022/08/05 01:27:08;;;;;;;2.33;2.17;;;25.50;91.90;;;;;;5035528;28;20107;-71
2022/08/05 01:29:39;;;;;;;2.90;2.40;;;25.50;92.00;;;;;;5039186;28;20479;-70
2022/08/05 01:32:08;;;;;;;5.28;2.40;;;25.50;92.00;;;;;;5047865;28;20946;-70
2022/08/05 01:34:41;;;;;;;2.78;2.30;;;25.50;92.20;;;;;;5036524;28;20049;-71
2022/08/05 01:37:31;;;;;;;5.43;2.40;;;25.40;92.00;;;;;;5036594;28;20480;-70
2022/08/05 01:39:58;;;;;;;2.83;2.10;;;25.40;92.20;;;;;;5048888;28;20048;-70
2022/08/05 01:42:25;;;;;;;7.10;2.50;;;25.40;92.10;;;;;;5042377;28;20021;-70
2022/08/05 01:44:58;;;;;;;3.38;2.33;;;25.30;92.10;;;;;;5047918;28;20064;-70
2022/08/05 01:47:25;;;;;;;5.93;2.70;;;25.30;92.10;;;;;;5042277;28;20040;-71
2022/08/05 01:49:53;;;;;;;2.42;2.20;;;25.30;92.10;;;;;;5047724;28;20028;-70
2022/08/05 01:52:21;;;;;;;2.20;2.05;;;25.30;92.00;;;;;;5042877;28;20025;-70
2022/08/05 01:54:51;;;;;;;3.08;2.38;;;25.20;92.00;;;;;;5047179;28;20502;-70
2022/08/05 01:57:25;;;;;;;2.72;2.53;;;25.20;92.30;;;;;;5039653;28;20029;-70
2022/08/05 01:59:55;;;;;;;3.33;2.47;;;25.20;92.20;;;;;;5047653;28;20024;-71
2022/08/05 02:02:21;;;;;;;2.58;2.05;;;25.20;92.30;;;;;;5047388;28;20032;-71
2022/08/05 02:04:48;;;;;;;4.80;2.40;;;25.20;92.20;;;;;;5034469;28;20029;-70
2022/08/05 02:07:14;;;;;;;4.85;2.40;;;25.10;92.30;;;;;;5036229;28;20116;-70
2022/08/05 02:09:40;;;;;;;3.40;2.42;;;25.10;92.20;;;;;;5046078;28;20495;-68
2022/08/05 02:12:14;;;;;;;4.50;2.70;;;25.10;92.30;;;;;;5043984;28;20487;-70
2022/08/05 02:14:46;;;;;;;5.15;2.63;;;25.10;92.40;;;;;;5039544;28;20048;-70
2022/08/05 02:17:37;;;;;;;2.28;2.10;;;25.00;92.50;;;;;;5040093;28;20091;-70
2022/08/05 02:20:07;;;;;;;3.03;2.30;;;25.00;92.40;;;;;;5052600;28;20640;-70
2022/08/05 02:22:40;;;;;;;2.30;2.10;;;25.00;92.30;;;;;;5044407;28;20543;-71
2022/08/05 02:25:21;;;;;;;3.65;2.08;;;25.00;92.20;;;;;;5053238;28;20033;-70
2022/08/05 02:27:49;;;;;;;3.13;2.25;;;25.00;92.40;;;;;;5040713;28;20391;-70
2022/08/05 02:30:18;;;;;;;2.92;2.08;;;25.00;92.20;;;;;;5014847;28;20022;-70
2022/08/05 02:32:49;;;;;;;2.17;1.92;;;25.00;92.20;;;;;;5044749;28;20025;-71
2022/08/05 02:35:19;;;;;;;2.35;2.03;;;25.00;92.10;;;;;;5054160;28;20510;-70
2022/08/05 02:37:46;;;;;;;2.50;2.30;;;25.00;92.10;;;;;;5041330;28;20460;-70
2022/08/05 02:40:14;;;;;;;4.85;2.20;;;24.90;92.00;;;;;;5053743;28;20028;-70
2022/08/05 02:42:41;;;;;;;3.90;2.30;;;24.90;92.00;;;;;;5042882;28;20088;-70
2022/08/05 02:45:09;;;;;;;3.53;2.20;;;24.90;92.00;;;;;;5053252;28;20120;-70
2022/08/05 02:47:36;;;;;;;2.78;2.10;;;24.90;92.00;;;;;;5043962;28;20018;-70
2022/08/05 02:50:05;;;;;;;2.78;2.22;;;24.90;92.20;;;;;;5052182;28;20056;-70
2022/08/05 02:52:32;;;;;;;2.40;2.20;;;24.90;92.10;;;;;;5044487;28;20112;-70
2022/08/05 02:55:00;;;;;;;2.50;2.28;;;24.90;92.30;;;;;;5051638;28;20033;-70
2022/08/05 02:57:26;;;;;;;2.67;2.30;;;24.80;92.20;;;;;;5041497;28;20018;-70
2022/08/05 02:59:53;;;;;;;3.40;2.33;;;24.90;92.20;;;;;;5050834;28;20032;-71
2022/08/05 03:02:25;;;;;;;4.97;2.30;;;24.90;92.30;;;;;;5050282;28;20024;-70
2022/08/05 03:04:53;;;;;;;1.95;1.85;;;24.80;92.10;;;;;;5036917;28;20032;-71
2022/08/05 03:07:20;;;;;;;3.72;2.20;;;24.90;92.20;;;;;;5038076;28;20440;-71
2022/08/05 03:09:46;;;;;;;2.40;1.98;;;24.80;92.30;;;;;;5050009;28;20032;-70
2022/08/05 03:12:30;;;;;;;5.07;2.35;;;24.80;92.40;;;;;;5046445;28;20033;-71
2022/08/05 03:14:56;;;;;;;5.95;2.38;;;24.70;92.60;;;;;;5049506;28;20041;-71
2022/08/05 03:17:22;;;;;;;3.33;2.00;;;24.70;92.60;;;;;;5044967;28;20021;-70
2022/08/05 03:19:48;;;;;;;2.50;2.00;;;24.70;92.50;;;;;;5050052;28;20549;-71
2022/08/05 03:22:13;;;;;;;3.67;2.65;;;24.70;92.60;;;;;;5045552;28;20189;-71
2022/08/05 03:24:41;;;;;;;2.38;2.17;;;24.70;92.60;;;;;;5048497;28;20025;-71
2022/08/05 03:27:07;;;;;;;3.88;2.10;;;24.60;92.70;;;;;;5043533;28;20049;-71
2022/08/05 03:29:33;;;;;;;2.75;2.20;;;24.60;92.70;;;;;;5047565;28;20273;-71
2022/08/05 03:31:59;;;;;;;2.42;2.03;;;24.60;92.70;;;;;;5043250;28;20021;-71
2022/08/05 03:34:26;;;;;;;4.72;2.10;;;24.60;92.80;;;;;;5046423;28;20043;-70
2022/08/05 03:36:52;;;;;;;6.30;2.83;;;24.50;93.20;;;;;;5048683;28;20128;-69
2022/08/05 03:39:18;;;;;;;3.72;2.30;;;24.50;93.50;;;;;;5045372;28;20543;-70
2022/08/05 03:41:43;;;;;;;2.00;1.90;;;24.50;93.40;;;;;;5049680;28;20379;-70
2022/08/05 03:44:09;;;;;;;3.75;2.22;;;24.40;93.60;;;;;;5044083;28;20025;-70
2022/08/05 03:46:35;;;;;;;2.22;1.95;;;24.40;93.80;;;;;;5047105;28;20032;-70
2022/08/05 03:49:00;;;;;;;2.90;2.30;;;24.30;93.90;;;;;;5051817;28;20480;-71
2022/08/05 03:51:39;;;;;;;2.08;1.98;;;24.30;93.90;;;;;;5048808;28;20681;-70
2022/08/05 03:54:25;;;;;;;4.35;2.20;;;24.30;93.90;;;;;;5041698;28;20033;-71
2022/08/05 03:56:51;;;;;;;4.63;2.25;;;24.20;94.30;;;;;;5038202;28;20029;-70
2022/08/05 03:59:23;;;;;;;3.47;2.20;;;24.20;94.40;;;;;;5045081;28;20033;-70
2022/08/05 04:01:50;;;;;;;3.05;2.20;;;24.20;94.70;;;;;;5047608;28;20027;-70
2022/08/05 04:04:18;;;;;;;2.20;2.00;;;24.20;94.80;;;;;;5040694;28;20030;-70
2022/08/05 04:06:44;;;;;;;6.45;2.38;;;24.20;95.00;;;;;;5032768;28;20476;-68
2022/08/05 04:09:11;;;;;;;2.50;2.30;;;24.20;95.40;;;;;;5035127;28;20056;-68
2022/08/05 04:11:37;;;;;;;2.75;2.55;;;24.20;95.50;;;;;;5048828;28;20029;-71
2022/08/05 04:14:03;;;;;;;6.70;2.67;;;24.20;95.80;;;;;;5043472;28;20460;-70
2022/08/05 04:16:31;;;;;;;2.80;2.60;;;24.20;95.50;;;;;;5048978;28;20033;-70
2022/08/05 04:18:57;;;;;;;2.60;2.40;;;24.20;94.90;;;;;;5043832;28;20036;-70
2022/08/05 04:21:23;;;;;;;2.72;2.10;;;24.20;94.40;;;;;;5048633;28;20026;-70
2022/08/05 04:23:49;;;;;;;2.80;2.50;;;24.20;94.20;;;;;;5035426;28;20053;-70
2022/08/05 04:26:15;;;;;;;4.85;2.40;;;24.30;94.10;;;;;;5033387;28;20391;-70
2022/08/05 04:28:41;;;;;;;4.18;2.53;;;24.30;94.10;;;;;;5036249;28;20492;-70
2022/08/05 04:31:06;;;;;;;3.80;2.50;;;24.30;94.10;;;;;;5033354;28;20048;-70
2022/08/05 04:33:32;;;;;;;2.67;2.47;;;24.30;94.10;;;;;;5045111;28;20041;-69
2022/08/05 04:35:58;;;;;;;2.97;2.30;;;24.30;94.10;;;;;;5032568;28;20087;-70
2022/08/05 04:38:24;;;;;;;2.53;2.33;;;24.30;94.00;;;;;;5041092;28;20044;-70
2022/08/05 04:40:50;;;;;;;4.20;2.50;;;24.40;94.00;;;;;;5050950;28;20053;-70
2022/08/05 04:43:16;;;;;;;4.07;2.47;;;24.40;94.00;;;;;;5040573;28;20387;-71
2022/08/05 04:45:41;;;;;;;8.98;2.80;;;24.40;94.00;;;;;;5051917;28;20021;-71
2022/08/05 04:48:09;;;;;;;4.95;2.45;;;24.40;93.90;;;;;;5039957;28;20052;-70
2022/08/05 04:50:53;;;;;;;12.43;2.83;;;24.50;94.00;;;;;;5051742;28;20131;-71
2022/08/05 04:53:19;;;;;;;4.57;2.22;;;24.50;94.20;;;;;;5042164;28;20061;-71
2022/08/05 04:55:45;;;;;;;2.50;2.30;;;24.50;94.00;;;;;;5030489;28;20444;-71
2022/08/05 04:58:13;;;;;;;4.10;2.60;;;24.60;94.10;;;;;;5039671;28;20091;-71
2022/08/05 05:00:39;;;;;;;2.90;2.50;;;24.60;93.80;;;;;;5051661;28;20029;-71
2022/08/05 05:03:07;;;;;;;4.60;2.60;;;24.60;93.90;;;;;;5045777;28;20028;-71
2022/08/05 05:05:33;;;;;;;24.67;3.05;;;24.60;93.70;;;;;;5030262;28;20029;-70
2022/08/05 05:08:01;;;;;;;3.78;2.10;;;24.70;93.80;;;;;;5038360;28;20022;-70
2022/08/05 05:10:28;;;;;;;4.47;2.50;;;24.70;93.80;;;;;;5051361;28;20044;-71
2022/08/05 05:12:53;;;;;;;4.05;2.17;;;24.70;93.80;;;;;;5036722;28;20020;-71
2022/08/05 05:15:19;;;;;;;3.95;2.13;;;24.80;93.80;;;;;;5051412;28;20040;-71
2022/08/05 05:17:45;;;;;;;2.92;2.58;;;24.80;93.70;;;;;;5039587;28;20027;-70
2022/08/05 05:20:12;;;;;;;3.63;2.40;;;24.90;93.60;;;;;;5050793;28;20440;-71
2022/08/05 05:22:38;;;;;;;5.68;2.65;;;25.00;93.70;;;;;;5040980;28;20018;-70
2022/08/05 05:25:05;;;;;;;4.63;2.33;;;25.00;93.70;;;;;;5049736;28;20025;-70
2022/08/05 05:27:32;;;;;;;3.67;2.00;;;25.00;93.70;;;;;;5041774;28;20028;-70
2022/08/05 05:29:58;;;;;;;5.03;2.30;;;25.10;93.70;;;;;;5033409;28;20029;-71
2022/08/05 05:32:24;;;;;;;3.05;2.22;;;25.20;93.70;;;;;;5040390;28;20444;-70
2022/08/05 05:34:49;;;;;;;6.22;2.80;;;25.20;93.50;;;;;;5034277;28;20128;-70
2022/08/05 05:37:15;;;;;;;8.82;2.50;;;25.20;93.70;;;;;;5036545;28;20104;-70
2022/08/05 05:39:41;;;;;;;6.93;2.25;;;25.30;93.60;;;;;;5046459;28;20049;-70
2022/08/05 05:42:07;;;;;;;4.97;3.20;;;25.40;93.50;;;;;;5044205;28;20083;-70
2022/08/05 05:44:33;;;;;;;3.55;2.40;;;25.40;93.30;;;;;;5045570;28;20056;-70
2022/08/05 05:46:59;;;;;;;10.05;2.67;;;25.50;93.20;;;;;;5051359;28;20087;-70
2022/08/05 05:49:25;;;;;;;2.97;2.10;;;25.60;93.20;;;;;;5050813;28;20422;-69
2022/08/05 05:51:51;;;;;;;2.90;2.47;;;25.60;93.10;;;;;;5053383;28;20056;-70
2022/08/05 05:54:17;;;;;;;13.85;2.92;;;25.60;93.00;;;;;;5049626;28;20153;-71
2022/08/05 05:56:42;;;;;;;6.68;2.47;;;25.70;93.40;;;;;;5050548;28;20448;-70
2022/08/05 05:59:08;;;;;;;9.45;3.08;;;25.80;93.00;;;;;;5048999;28;20021;-70
2022/08/05 06:01:37;;;;;;;11.50;2.90;;;25.80;92.90;;;;;;5054008;28;20511;-69
2022/08/05 06:04:03;;;;;;;7.43;2.90;;;25.90;92.90;;;;;;5046890;28;20029;-69
2022/08/05 06:06:29;;;;;;;11.60;2.80;;;25.90;92.90;;;;;;5040518;28;20102;-69
2022/08/05 06:08:54;;;;;;;11.82;2.40;;;26.00;93.00;;;;;;5046486;28;20112;-69
2022/08/05 06:11:20;;;;;;;8.23;2.72;;;26.00;92.80;;;;;;5039283;28;20113;-70
2022/08/05 06:13:46;;;;;;;18.75;2.78;;;26.10;92.40;;;;;;5048526;28;20031;-70
2022/08/05 06:16:11;;;;;;;6.55;2.78;;;26.20;92.40;;;;;;5054016;28;20442;-71
2022/08/05 06:18:37;;;;;;;7.03;2.42;;;26.20;92.10;;;;;;5048323;28;20096;-71
2022/08/05 06:21:03;;;;;;;6.85;2.33;;;26.30;92.10;;;;;;5056252;28;20033;-71
2022/08/05 06:23:30;;;;;;;7.78;2.72;;;26.30;91.80;;;;;;5047472;28;20036;-71
2022/08/05 06:25:56;;;;;;;7.00;2.55;;;26.40;90.90;;;;;;5037997;28;20071;-79
2022/08/05 06:28:22;;;;;;;5.53;2.67;;;26.50;90.70;;;;;;5046233;28;20037;-71
2022/08/05 06:30:47;;;;;;;6.20;2.67;;;26.60;91.10;;;;;;5055114;28;20058;-71
2022/08/05 06:33:13;;;;;;;2.83;2.30;;;26.60;91.50;;;;;;5051429;28;20040;-71
2022/08/05 06:35:39;;;;;;;9.38;2.88;;;26.60;91.60;;;;;;5037255;28;20112;-71
2022/08/05 06:38:04;;;;;;;5.63;2.78;;;26.70;91.90;;;;;;5043294;28;20042;-71
2022/08/05 06:40:30;;;;;;;7.85;2.53;;;26.80;92.20;;;;;;5057302;28;20089;-71
2022/08/05 06:42:56;;;;;;;2.80;2.05;;;26.80;93.40;;;;;;5044803;28;20026;-70
2022/08/05 06:45:22;;;;;;;2.58;2.05;;;26.90;93.30;;;;;;5057192;28;20036;-71
2022/08/05 06:47:48;;;;;;;10.63;2.67;;;26.90;93.20;;;;;;5043622;28;20690;-72
2022/08/05 06:50:14;;;;;;;3.25;1.98;;;27.00;93.70;;;;;;5057084;28;20060;-72
2022/08/05 06:52:39;;;;;;;14.38;3.70;;;27.10;93.90;;;;;;5044862;28;20029;-71
2022/08/05 06:55:06;;;;;;;19.55;3.22;;;27.10;94.00;;;;;;5055651;28;20044;-72
2022/08/05 06:57:32;;;;;;;12.95;3.13;;;27.20;93.30;;;;;;5041449;28;20079;-70
2022/08/05 06:59:57;;;;;;;6.35;2.60;;;27.30;92.90;;;;;;5050190;28;20445;-71
2022/08/05 07:02:23;;;;;;;7.75;2.45;;;27.40;92.30;;;;;;5041343;28;20029;-73
2022/08/05 07:04:49;;;;;;;4.13;2.20;;;27.50;92.70;;;;;;5035652;28;20407;-73
2022/08/05 07:07:15;;;;;;;15.27;5.50;;;27.50;93.10;;;;;;5039056;28;20029;-71
2022/08/05 07:09:40;;;;;;;11.07;5.90;;;27.60;94.20;;;;;;5049015;28;20091;-72
2022/08/05 07:12:07;;;;;;;2.65;2.00;;;27.70;94.60;;;;;;5047322;28;20254;-73
2022/08/05 07:17:16;;;;;;;4.15;2.25;;;27.90;87.60;;;;;;5045638;28;20044;-74
2022/08/05 07:19:42;;;;;;;3.40;2.20;;;28.00;91.20;;;;;;5049328;28;20029;-73
2022/08/05 07:22:08;;;;;;;5.68;2.50;;;28.00;87.00;;;;;;5045750;28;20033;-74
2022/08/05 07:24:33;;;;;;;4.40;2.80;;;28.00;87.40;;;;;;5046457;28;20081;-74
2022/08/05 07:26:59;;;;;;;3.47;2.78;;;28.10;89.40;;;;;;5044426;28;20025;-72
2022/08/05 07:29:25;;;;;;;7.78;3.10;;;28.10;91.80;;;;;;5045338;28;20549;-72
2022/08/05 07:31:50;;;;;;;12.23;2.53;;;28.10;91.50;;;;;;5046746;28;20036;-74
2022/08/05 07:34:16;;;;;;;5.07;2.80;;;28.10;91.60;;;;;;5041264;28;20074;-72
2022/08/05 07:36:42;;;;;;;6.10;2.63;;;28.20;91.10;;;;;;5036849;28;20048;-71
2022/08/05 07:39:08;;;;;;;8.65;3.38;;;28.20;91.20;;;;;;5044093;28;20049;-71
2022/08/05 07:41:35;;;;;;;7.88;2.85;;;28.20;91.00;;;;;;5049562;28;20025;-71
2022/08/05 07:44:02;;;;;;;5.80;2.67;;;28.20;91.90;;;;;;5042952;28;20029;-71
2022/08/05 07:46:30;;;;;;;2.97;2.30;;;28.30;92.40;;;;;;5049486;28;20021;-71
2022/08/05 07:48:57;;;;;;;6.43;2.67;;;28.30;91.70;;;;;;5042706;28;20082;-71
2022/08/05 07:51:23;;;;;;;3.25;2.50;;;28.40;91.60;;;;;;5049517;28;20484;-71
2022/08/05 07:53:48;;;;;;;7.63;2.30;;;28.40;91.80;;;;;;5043816;28;20029;-72
2022/08/05 07:56:14;;;;;;;11.73;2.80;;;28.40;91.60;;;;;;5045923;28;20047;-71
2022/08/05 07:58:40;;;;;;;3.00;2.70;;;28.40;92.10;;;;;;5043968;28;20025;-72
2022/08/05 08:01:06;;;;;;;4.43;2.35;;;28.50;92.20;;;;;;5050204;28;20361;-71
2022/08/05 08:03:32;;;;;;;11.15;2.70;;;28.50;91.40;;;;;;5044186;28;20109;-71
2022/08/05 08:05:57;;;;;;;3.58;2.20;;;28.60;91.60;;;;;;5033660;28;20026;-73
2022/08/05 08:08:23;;;;;;;5.05;2.50;;;28.70;92.30;;;;;;5041173;28;20025;-72
2022/08/05 08:10:49;;;;;;;3.83;2.40;;;28.80;92.20;;;;;;5041063;28;20053;-72
2022/08/05 08:13:14;;;;;;;5.60;2.88;;;28.90;90.90;;;;;;5042352;28;20013;-70
2022/08/05 08:15:40;;;;;;;2.42;2.22;;;29.00;90.60;;;;;;5032510;28;20048;-70
2022/08/05 08:18:07;;;;;;;11.90;2.53;;;29.00;90.20;;;;;;5040112;28;20036;-70
2022/08/05 08:20:32;;;;;;;11.05;2.53;;;29.10;90.60;;;;;;5052546;28;20053;-72
2022/08/05 08:22:59;;;;;;;9.00;2.55;;;29.20;90.30;;;;;;5038559;28;20053;-72
2022/08/05 08:25:27;;;;;;;14.05;2.70;;;29.30;89.80;;;;;;5051023;28;20052;-71
2022/08/05 08:27:53;;;;;;;3.33;2.17;;;29.40;89.90;;;;;;5037994;28;20033;-70
2022/08/05 08:30:19;;;;;;;3.75;2.28;;;29.40;90.00;;;;;;5052391;28;20108;-73
2022/08/05 08:32:45;;;;;;;3.40;2.30;;;29.40;89.00;;;;;;5046818;28;20108;-72
2022/08/05 08:35:11;;;;;;;3.70;2.13;;;29.40;88.80;;;;;;5032565;28;20025;-71
2022/08/05 08:37:36;;;;;;;11.63;2.47;;;29.40;89.50;;;;;;5037113;28;20033;-74
2022/08/05 08:40:03;;;;;;;11.68;3.05;;;29.40;89.80;;;;;;5050225;28;20128;-72
2022/08/05 08:42:29;;;;;;;7.47;2.72;;;29.40;88.60;;;;;;5042299;28;20028;-72
2022/08/05 08:44:57;;;;;;;8.00;2.80;;;29.40;89.10;;;;;;5049195;28;20029;-75
2022/08/05 08:47:25;;;;;;;11.18;2.65;;;29.40;88.10;;;;;;5043152;28;20915;-72
2022/08/05 08:49:56;;;;;;;8.02;2.40;;;29.40;88.50;;;;;;5048636;28;20032;-71
2022/08/05 08:52:29;;;;;;;4.70;1.73;;;29.40;88.40;;;;;;5043038;28;20477;-71
2022/08/05 08:54:55;;;;;;;3.33;1.65;;;29.50;86.80;;;;;;5049028;28;20044;-73
2022/08/05 08:57:22;;;;;;;4.20;2.22;;;29.50;88.60;;;;;;5039684;28;20026;-73
2022/08/05 08:59:49;;;;;;;3.97;2.72;;;29.70;88.00;;;;;;5048343;28;20045;-72
2022/08/05 09:02:18;;;;;;;5.85;2.60;;;29.80;88.00;;;;;;5043903;28;20108;-72
2022/08/05 09:04:45;;;;;;;2.10;1.90;;;29.90;85.60;;;;;;5031503;28;20022;-73
2022/08/05 09:07:11;;;;;;;2.42;1.98;;;29.80;85.20;;;;;;5036892;28;20488;-72
2022/08/05 09:09:37;;;;;;;4.28;1.70;;;29.80;85.30;;;;;;5046579;28;20029;-71
2022/08/05 09:12:06;;;;;;;4.22;2.08;;;29.90;83.50;;;;;;5045406;28;20029;-72
2022/08/05 09:14:36;;;;;;;4.45;1.73;;;30.00;85.00;;;;;;5044112;28;20400;-72
2022/08/05 09:17:08;;;;;;;16.45;2.30;;;30.00;83.40;;;;;;5045543;28;20025;-72
2022/08/05 09:19:35;;;;;;;2.67;1.73;;;30.10;83.50;;;;;;5044459;28;20374;-72
2022/08/05 09:22:00;;;;;;;2.38;2.17;;;30.20;84.70;;;;;;5043993;28;20451;-73
2022/08/05 09:24:26;;;;;;;4.60;2.05;;;30.20;85.70;;;;;;5044631;28;20104;-71
2022/08/05 09:26:55;;;;;;;4.78;1.85;;;30.40;85.10;;;;;;5043225;28;20021;-71
2022/08/05 09:29:41;;;;;;;2.45;2.05;;;30.50;82.30;;;;;;5043823;28;20159;-73
2022/08/05 09:32:07;;;;;;;9.38;2.05;;;30.50;82.60;;;;;;5047615;28;20025;-72
2022/08/05 09:34:51;;;;;;;4.70;2.22;;;30.50;81.80;;;;;;5036895;28;20124;-71
2022/08/05 09:37:21;;;;;;;2.78;1.90;;;30.50;82.00;;;;;;5036634;28;20373;-72
2022/08/05 09:39:47;;;;;;;4.15;2.08;;;30.60;83.20;;;;;;5047414;28;20055;-71
2022/08/05 09:42:18;;;;;;;3.63;1.50;;;30.70;83.70;;;;;;5043529;28;20248;-72
2022/08/05 09:44:46;;;;;;;3.08;1.80;;;30.70;80.80;;;;;;5046786;28;20025;-71
2022/08/05 09:47:13;;;;;;;2.95;2.03;;;30.80;81.60;;;;;;5043909;28;20396;-71
2022/08/05 09:49:42;;;;;;;4.63;2.00;;;30.80;81.20;;;;;;5044946;28;20025;-72
2022/08/05 09:52:20;;;;;;;2.67;1.83;;;31.00;82.00;;;;;;5044282;28;20033;-74
2022/08/05 09:54:59;;;;;;;5.50;1.90;;;31.00;80.20;;;;;;5046893;28;20029;-72
2022/08/05 09:57:37;;;;;;;4.90;2.10;;;30.90;81.20;;;;;;5038532;28;20026;-71
2022/08/05 10:00:12;;;;;;;2.40;2.00;;;30.90;80.80;;;;;;5049337;28;20017;-73
2022/08/05 10:02:42;;;;;;;4.35;1.80;;;30.90;82.70;;;;;;5046094;28;20111;-72
2022/08/05 10:05:28;;;;;;;3.13;1.98;;;30.80;79.10;;;;;;5031620;28;20503;-72
2022/08/05 10:08:05;;;;;;;2.75;1.88;;;30.90;83.50;;;;;;5036891;28;20499;-73
2022/08/05 10:10:37;;;;;;;4.25;2.00;;;30.80;82.20;;;;;;5050945;28;20104;-72
2022/08/05 10:13:04;;;;;;;2.20;2.00;;;30.80;81.40;;;;;;5038582;28;20025;-72
2022/08/05 10:15:32;;;;;;;2.05;1.70;;;30.70;80.60;;;;;;5049315;28;20033;-71
2022/08/05 10:18:15;;;;;;;2.70;1.63;;;30.70;82.30;;;;;;5038172;28;20022;-72
2022/08/05 10:20:46;;;;;;;3.78;2.20;;;30.80;81.70;;;;;;5050776;28;20032;-72
2022/08/05 10:23:14;;;;;;;6.15;1.70;;;30.90;82.00;;;;;;5039024;28;20028;-71
2022/08/05 10:25:40;;;;;;;3.45;1.95;;;31.00;82.00;;;;;;5047428;28;20032;-73
2022/08/05 10:28:06;;;;;;;2.13;1.70;;;31.00;84.10;;;;;;5038236;28;20064;-73
2022/08/05 10:30:34;;;;;;;5.00;2.03;;;31.10;81.30;;;;;;5050593;28;20096;-72
2022/08/05 10:33:02;;;;;;;3.65;1.85;;;31.10;81.40;;;;;;5047295;28;20499;-71
2022/08/05 10:35:27;;;;;;;3.28;2.05;;;31.20;81.80;;;;;;5034560;28;20037;-73
2022/08/05 10:37:54;;;;;;;4.53;2.08;;;31.20;83.80;;;;;;5039937;28;20396;-73
2022/08/05 10:40:35;;;;;;;7.00;2.03;;;31.20;83.90;;;;;;5054282;28;20049;-71
2022/08/05 10:43:10;;;;;;;2.92;2.22;;;31.20;83.70;;;;;;5042132;28;20373;-72
2022/08/05 10:45:36;;;;;;;2.00;1.80;;;31.30;84.00;;;;;;5054065;28;20605;-73
2022/08/05 10:48:29;;;;;;;1.90;1.73;;;31.40;82.60;;;;;;5042066;28;20036;-72
2022/08/05 10:51:01;;;;;;;2.88;1.83;;;31.40;82.40;;;;;;5052750;28;20028;-73
2022/08/05 10:53:34;;;;;;;5.05;1.90;;;31.40;81.50;;;;;;5041950;28;20032;-72
2022/08/05 10:56:25;;;;;;;3.33;1.85;;;31.50;78.00;;;;;;5048899;28;20500;-72
2022/08/05 10:58:57;;;;;;;2.30;1.83;;;31.50;79.70;;;;;;5037718;28;20084;-71
2022/08/05 11:01:37;;;;;;;2.28;1.90;;;31.70;81.40;;;;;;5036346;28;20029;-71
2022/08/05 11:04:13;;;;;;;3.67;1.98;;;31.70;80.50;;;;;;5043943;28;20354;-73
2022/08/05 11:07:03;;;;;;;7.78;1.90;;;31.90;81.40;;;;;;5050397;28;20028;-71
2022/08/05 11:09:49;;;;;;;6.05;2.00;;;31.90;81.70;;;;;;5041295;28;20452;-71
2022/08/05 11:12:33;;;;;;;2.53;1.98;;;32.00;80.90;;;;;;5046322;28;20057;-71
2022/08/05 11:15:14;;;;;;;4.22;2.42;;;32.00;80.60;;;;;;5035808;28;20040;-72
2022/08/05 11:17:40;;;;;;;5.07;2.10;;;31.90;80.70;;;;;;5038972;28;20172;-72
2022/08/05 11:20:27;;;;;;;6.05;2.08;;;31.90;81.90;;;;;;5052168;28;20036;-72
2022/08/05 11:22:53;;;;;;;9.98;2.30;;;31.90;79.90;;;;;;5040978;28;20116;-72
2022/08/05 11:25:42;;;;;;;6.35;1.77;;;31.90;80.50;;;;;;5053089;28;20139;-73
2022/08/05 11:28:11;;;;;;;7.13;2.13;;;31.90;78.80;;;;;;5041536;28;20056;-73
2022/08/05 11:31:01;;;;;;;5.72;1.95;;;31.90;79.70;;;;;;5053290;28;20103;-71
2022/08/05 11:33:37;;;;;;;2.67;1.98;;;31.90;79.70;;;;;;5044696;28;20112;-72
2022/08/05 11:36:05;;;;;;;8.60;2.25;;;31.90;79.00;;;;;;5034228;28;20037;-73
2022/08/05 11:38:43;;;;;;;8.50;2.15;;;31.90;79.50;;;;;;5043037;28;20447;-72
2022/08/05 11:41:24;;;;;;;2.95;1.90;;;31.80;81.30;;;;;;5050516;28;20443;-74
2022/08/05 11:44:00;;;;;;;7.13;1.88;;;31.90;81.10;;;;;;5038810;28;20030;-72
2022/08/05 11:46:52;;;;;;;6.07;2.20;;;32.00;80.10;;;;;;5036100;28;20113;-72
2022/08/05 11:49:21;;;;;;;4.63;2.10;;;32.00;81.30;;;;;;5038413;28;20483;-74
2022/08/05 11:51:52;;;;;;;2.35;2.13;;;32.00;80.70;;;;;;5038191;28;20502;-71
2022/08/05 11:54:31;;;;;;;6.40;2.15;;;32.00;79.60;;;;;;5045152;28;20039;-78
2022/08/05 11:56:57;;;;;;;3.13;2.20;;;32.00;79.60;;;;;;5042603;28;20025;-73
2022/08/05 11:59:26;;;;;;;7.28;2.30;;;32.00;80.90;;;;;;5039998;28;20120;-72
2022/08/05 12:01:56;;;;;;;3.70;2.15;;;32.10;82.40;;;;;;5038975;28;20071;-73
2022/08/05 12:04:23;;;;;;;10.93;2.15;;;32.20;80.80;;;;;;5040052;28;20471;-73
2022/08/05 12:06:49;;;;;;;2.50;2.17;;;32.10;79.70;;;;;;5038263;28;20029;-72
2022/08/05 12:09:23;;;;;;;5.55;2.25;;;31.90;80.80;;;;;;5044458;28;20029;-81
2022/08/05 12:11:49;;;;;;;2.63;2.05;;;32.20;80.40;;;;;;5048699;28;20079;-78
2022/08/05 12:14:14;;;;;;;6.72;2.30;;;33.00;79.80;;;;;;5044161;28;20037;-77
2022/08/05 12:16:43;;;;;;;2.95;2.13;;;34.60;77.80;;;;;;5044228;28;20086;-76
2022/08/05 12:19:10;;;;;;;3.92;1.90;;;36.40;73.80;;;;;;5043754;28;20025;-79
2022/08/05 12:21:43;;;;;;;6.85;1.90;;;37.60;70.70;;;;;;5031245;28;20400;-78
2022/08/05 12:24:13;;;;;;;4.30;1.98;;;38.90;69.20;;;;;;5043463;28;20105;-76
2022/08/05 12:26:45;;;;;;;9.05;3.58;;;39.70;67.00;;;;;;5045438;28;20037;-75
2022/08/05 12:29:16;;;;;;;2.47;2.00;;;40.10;66.30;;;;;;5034798;28;20530;-76
2022/08/05 12:31:50;;;;;;;4.55;1.90;;;40.40;65.80;;;;;;5047655;28;20117;-78
2022/08/05 12:34:18;;;;;;;3.83;1.88;;;41.00;67.00;;;;;;5036236;28;20033;-74
2022/08/05 12:36:45;;;;;;;3.03;1.85;;;41.40;63.70;;;;;;5048570;28;20079;-83
2022/08/05 12:39:11;;;;;;;3.60;2.13;;;41.50;64.40;;;;;;5012537;28;20077;-85
2022/08/05 12:41:40;;;;;;;4.40;2.08;;;41.70;65.40;;;;;;5006825;28;20119;-78
2022/08/05 12:44:10;;;;;;;3.45;2.00;;;41.90;63.60;;;;;;5042078;28;20036;-82
2022/08/05 12:46:39;;;;;;;1.92;1.60;;;42.60;63.10;;;;;;5047889;28;20515;-83
2022/08/05 12:49:09;;;;;;;3.47;1.90;;;43.30;62.60;;;;;;5041345;28;20029;-90
2022/08/05 12:51:54;;;;;;;4.97;1.90;;;43.50;62.00;;;;;;5034730;28;20025;-87
2022/08/05 12:54:23;;;;;;;3.13;1.80;;;43.50;61.00;;;;;;5036776;28;20288;-78
2022/08/05 12:56:55;;;;;;;2.30;1.90;;;43.40;62.40;;;;;;5042406;28;20021;-78
2022/08/05 12:59:23;;;;;;;3.40;2.00;;;43.80;61.90;;;;;;5044299;28;20025;-79